Time;durP1;ratioP1;P1;durP2;ratioP2;P2;SDS_P1;SDS_P2;PMS_P1;PMS_P2;Temp;Humidity;BMP_temperature;BMP_pressure;BME280_temperature;BME280_humidity;BME280_pressure;Samples;Min_cycle;Max_cycle;Signal;HPM_P1;HPM_P2
2023/10/18 00:02:18;;;;;;;0.32;0.32;;;;;;;11.07;47.45;101570.75;5009125;28;20384;-75
2023/10/18 00:04:44;;;;;;;0.20;0.20;;;;;;;11.07;47.47;101564.59;5025200;28;20454;-76
2023/10/18 00:07:13;;;;;;;0.80;0.70;;;;;;;11.07;47.41;101554.84;5025333;28;20384;-76
2023/10/18 00:09:45;;;;;;;0.10;0.10;;;;;;;11.13;47.32;101565.78;5008924;28;20408;-75
2023/10/18 00:12:16;;;;;;;0.13;0.13;;;;;;;11.19;47.22;101565.19;5025466;28;20471;-74
2023/10/18 00:14:43;;;;;;;0.10;0.10;;;;;;;11.25;47.06;101573.41;5009944;28;20467;-75
2023/10/18 00:17:09;;;;;;;0.60;0.60;;;;;;;11.25;47.20;101575.19;5008839;28;20392;-75
2023/10/18 00:19:34;;;;;;;0.30;0.30;;;;;;;11.26;47.10;101574.22;5025435;28;20415;-75
2023/10/18 00:22:00;;;;;;;1.40;0.82;;;;;;;11.25;47.21;101568.09;5009666;28;20450;-75
2023/10/18 00:24:26;;;;;;;0.40;0.40;;;;;;;11.26;47.09;101559.13;5010542;28;20380;-75
2023/10/18 00:26:53;;;;;;;0.20;0.20;;;;;;;11.46;46.79;101561.59;5024410;28;20449;-76
2023/10/18 00:29:18;;;;;;;0.10;0.10;;;;;;;11.54;46.73;101560.81;5010300;28;20396;-76
2023/10/18 00:31:44;;;;;;;0.20;0.20;;;;;;;11.60;46.29;101555.72;5010006;28;20411;-75
2023/10/18 00:34:12;;;;;;;0.00;0.00;;;;;;;11.64;45.99;101554.41;5009245;28;20467;-76
2023/10/18 00:36:37;;;;;;;0.32;0.32;;;;;;;11.55;46.25;101539.41;5010935;28;20460;-76
2023/10/18 00:39:48;;;;;;;0.40;0.40;;;;;;;11.57;46.24;101541.91;5010276;28;20849;-76
2023/10/18 00:41:55;;;;;;;0.20;0.20;;;;;;;11.57;46.18;101550.72;5012705;28;20411;-76
2023/10/18 00:44:21;;;;;;;0.17;0.17;;;;;;;11.51;46.45;101553.19;5010326;28;20387;-76
2023/10/18 00:46:53;;;;;;;2.67;1.17;;;;;;;11.46;46.42;101564.25;5024937;28;20466;-76
2023/10/18 00:49:20;;;;;;;0.20;0.20;;;;;;;11.47;46.74;101564.09;5010090;28;20382;-76
2023/10/18 00:51:49;;;;;;;0.30;0.30;;;;;;;11.34;46.65;101566.31;5007928;28;20392;-77
2023/10/18 00:54:15;;;;;;;0.40;0.30;;;;;;;11.11;47.06;101563.31;5009849;28;20475;-76
2023/10/18 00:56:50;;;;;;;2.20;0.20;;;;;;;11.27;47.13;101563.44;5009852;28;20381;-75
2023/10/18 00:59:22;;;;;;;0.20;0.20;;;;;;;11.32;46.83;101556.84;5025068;28;20406;-76
2023/10/18 01:04:52;;;;;;;0.30;0.30;;;;;;;11.32;46.67;101554.19;5004149;28;20395;-76
2023/10/18 01:07:20;;;;;;;0.15;0.15;;;;;;;11.52;46.45;101549.50;5008721;28;20407;-76
2023/10/18 01:09:53;;;;;;;0.47;0.32;;;;;;;11.60;46.10;101549.59;5008783;28;20416;-76
2023/10/18 01:12:19;;;;;;;0.60;0.20;;;;;;;11.66;45.87;101546.28;5010387;28;20380;-76
2023/10/18 01:14:45;;;;;;;0.32;0.32;;;;;;;11.68;46.06;101541.66;5010211;28;20392;-76
2023/10/18 01:17:11;;;;;;;0.35;0.35;;;;;;;11.56;46.33;101542.91;5025366;28;20388;-76
2023/10/18 01:19:40;;;;;;;0.20;0.20;;;;;;;11.60;45.90;101549.59;5008706;28;20408;-76
2023/10/18 01:22:06;;;;;;;0.60;0.47;;;;;;;11.58;46.32;101548.91;5010149;28;20384;-76
2023/10/18 01:24:36;;;;;;;0.30;0.30;;;;;;;11.58;46.26;101548.91;5024910;28;20395;-76
2023/10/18 01:27:05;;;;;;;0.50;0.50;;;;;;;11.71;46.50;101546.66;5024447;28;20386;-76
2023/10/18 01:29:34;;;;;;;0.75;0.30;;;;;;;11.88;45.53;101538.78;5008151;28;20384;-76
2023/10/18 01:31:59;;;;;;;0.28;0.20;;;;;;;11.83;45.38;101528.66;5009721;28;20396;-76
2023/10/18 01:34:28;;;;;;;0.80;0.40;;;;;;;11.78;45.71;101550.34;5009273;28;20809;-77
2023/10/18 01:36:57;;;;;;;0.30;0.30;;;;;;;11.65;46.29;101552.59;5007858;28;20446;-77
2023/10/18 01:39:28;;;;;;;0.25;0.20;;;;;;;11.68;46.07;101546.97;5009465;28;20392;-77
2023/10/18 01:41:54;;;;;;;0.60;0.60;;;;;;;11.63;46.19;101543.94;5024407;28;20403;-76
2023/10/18 01:44:33;;;;;;;0.25;0.25;;;;;;;11.66;45.94;101543.63;5024997;28;20392;-77
2023/10/18 01:47:06;;;;;;;0.30;0.30;;;;;;;11.71;45.95;101541.34;5009392;28;20455;-77
2023/10/18 01:49:38;;;;;;;0.10;0.10;;;;;;;11.66;45.96;101531.19;5007929;28;20396;-76
2023/10/18 01:52:04;;;;;;;0.22;0.22;;;;;;;11.70;45.83;101536.19;5024596;28;20404;-77
2023/10/18 01:54:32;;;;;;;0.45;0.45;;;;;;;11.59;46.04;101538.09;5008009;28;20384;-77
2023/10/18 01:57:00;;;;;;;0.20;0.20;;;;;;;11.56;46.06;101545.56;5009199;28;20380;-76
2023/10/18 01:59:28;;;;;;;0.73;0.73;;;;;;;11.45;46.55;101546.66;5008032;28;20831;-77
2023/10/18 02:01:57;;;;;;;0.13;0.13;;;;;;;11.48;46.60;101541.84;5008793;28;20879;-77
2023/10/18 02:04:26;;;;;;;0.90;0.50;;;;;;;11.57;46.21;101544.56;5026397;28;20400;-77
2023/10/18 02:06:59;;;;;;;0.13;0.13;;;;;;;11.60;46.04;101537.13;5012880;28;20743;-76
2023/10/18 02:09:52;;;;;;;0.22;0.22;;;;;;;11.59;46.24;101527.47;5011277;28;20418;-76
2023/10/18 02:12:21;;;;;;;0.30;0.30;;;;;;;11.74;45.91;101540.19;5013621;28;20506;-76
2023/10/18 02:14:48;;;;;;;0.70;0.70;;;;;;;11.65;46.11;101542.00;5027591;28;20960;-76
2023/10/18 02:17:14;;;;;;;0.40;0.40;;;;;;;11.70;45.94;101529.03;5011611;28;20560;-75
2023/10/18 02:19:40;;;;;;;0.30;0.30;;;;;;;11.80;45.85;101526.28;5027712;28;20487;-75
2023/10/18 02:22:08;;;;;;;0.20;0.20;;;;;;;11.82;45.83;101534.94;5012188;28;20380;-75
2023/10/18 02:24:38;;;;;;;0.30;0.30;;;;;;;11.70;46.28;101536.19;5011557;28;20479;-74
2023/10/18 02:27:08;;;;;;;0.15;0.15;;;;;;;11.72;46.37;101539.50;5012017;28;20386;-75
2023/10/18 02:29:34;;;;;;;0.20;0.20;;;;;;;11.74;46.17;101527.75;5012016;28;20384;-74
2023/10/18 02:32:04;;;;;;;0.30;0.30;;;;;;;11.87;45.84;101537.94;5012109;28;20403;-74
2023/10/18 02:34:33;;;;;;;0.20;0.20;;;;;;;11.94;45.89;101530.19;5012057;28;20388;-74
2023/10/18 02:37:01;;;;;;;0.40;0.40;;;;;;;11.99;45.62;101531.41;5011781;28;20382;-74
2023/10/18 02:39:32;;;;;;;0.10;0.10;;;;;;;12.01;45.71;101532.06;5011861;28;20388;-74
2023/10/18 02:42:06;;;;;;;0.40;0.40;;;;;;;12.08;45.46;101524.28;5010573;28;20392;-75
2023/10/18 02:44:34;;;;;;;0.15;0.15;;;;;;;12.13;45.49;101524.63;5011912;28;20396;-74
2023/10/18 02:47:10;;;;;;;0.10;0.10;;;;;;;12.13;45.06;101511.34;5011743;28;20384;-75
2023/10/18 02:49:36;;;;;;;0.40;0.40;;;;;;;12.19;45.20;101525.81;5026898;28;20404;-74
2023/10/18 02:52:03;;;;;;;0.20;0.20;;;;;;;12.02;45.75;101522.28;5011631;28;20391;-75
2023/10/18 02:54:32;;;;;;;0.10;0.10;;;;;;;11.90;45.82;101531.47;5011651;28;20404;-75
2023/10/18 02:56:59;;;;;;;0.43;0.43;;;;;;;11.63;46.66;101530.66;5012248;28;20388;-75
2023/10/18 02:59:27;;;;;;;0.20;0.20;;;;;;;11.29;47.80;101539.41;5011791;28;20398;-75
2023/10/18 03:01:57;;;;;;;1.40;0.95;;;;;;;11.15;48.42;101548.75;5010288;28;20410;-75
2023/10/18 03:04:26;;;;;;;0.30;0.30;;;;;;;11.10;48.58;101554.50;5010498;28;20392;-76
2023/10/18 03:06:52;;;;;;;0.50;0.50;;;;;;;11.11;48.18;101558.00;5011729;28;20521;-76
2023/10/18 03:12:03;;;;;;;0.20;0.20;;;;;;;10.70;49.48;101544.34;5011304;28;20834;-76
2023/10/18 03:17:23;;;;;;;0.50;0.50;;;;;;;10.99;48.76;101554.75;5011364;28;20454;-75
2023/10/18 03:19:56;;;;;;;0.17;0.17;;;;;;;10.97;48.64;101566.50;5011903;28;20494;-74
2023/10/18 03:22:25;;;;;;;0.45;0.45;;;;;;;10.94;48.76;101558.84;5010886;28;20394;-75
2023/10/18 03:24:55;;;;;;;0.50;0.50;;;;;;;10.99;48.58;101564.53;5011332;28;20392;-76
2023/10/18 03:27:29;;;;;;;0.20;0.20;;;;;;;11.05;48.30;101561.25;5009933;28;20454;-76
2023/10/18 03:29:58;;;;;;;0.20;0.20;;;;;;;11.07;48.12;101564.59;5010220;28;20906;-76
2023/10/18 03:32:25;;;;;;;1.10;1.10;;;;;;;11.09;47.69;101567.91;5011405;28;20412;-74
2023/10/18 03:34:54;;;;;;;1.40;1.00;;;;;;;11.03;48.13;101563.22;5011493;28;20387;-78
2023/10/18 03:37:24;;;;;;;0.30;0.30;;;;;;;10.95;48.14;101569.31;5025755;28;20399;-77
2023/10/18 03:39:53;;;;;;;0.38;0.38;;;;;;;10.90;48.10;101566.28;5010782;28;20391;-76
2023/10/18 03:42:32;;;;;;;0.90;0.22;;;;;;;10.93;48.29;101568.63;5010026;28;20388;-76
2023/10/18 03:45:09;;;;;;;0.20;0.20;;;;;;;11.00;48.11;101558.22;5010576;28;20384;-76
2023/10/18 03:47:37;;;;;;;0.60;0.37;;;;;;;11.08;47.82;101551.19;5010742;28;20415;-76
2023/10/18 03:50:15;;;;;;;0.60;0.60;;;;;;;11.10;47.42;101549.19;5025431;28;20407;-77
2023/10/18 03:52:41;;;;;;;0.20;0.20;;;;;;;11.03;47.91;101557.94;5026068;28;20396;-75
2023/10/18 03:55:17;;;;;;;0.40;0.40;;;;;;;10.71;48.64;101570.72;5025313;28;20380;-73
2023/10/18 03:57:43;;;;;;;0.23;0.23;;;;;;;10.40;49.37;101582.63;5008810;28;20396;-76
2023/10/18 04:02:52;;;;;;;0.50;0.50;;;;;;;9.96;51.05;101577.91;5009693;28;20483;-74
2023/10/18 04:05:40;;;;;;;0.30;0.30;;;;;;;10.18;49.89;101563.44;5009676;28;20418;-74
2023/10/18 04:08:06;;;;;;;0.20;0.20;;;;;;;10.08;50.26;101566.16;5008612;28;20461;-74
2023/10/18 04:10:36;;;;;;;0.22;0.22;;;;;;;10.21;50.18;101571.13;5009203;28;20400;-74
2023/10/18 04:13:10;;;;;;;0.50;0.50;;;;;;;10.14;50.12;101564.72;5009412;28;20773;-75
2023/10/18 04:15:43;;;;;;;0.40;0.40;;;;;;;10.21;49.79;101570.25;5008674;28;20399;-75
2023/10/18 04:20:48;;;;;;;0.30;0.30;;;;;;;10.14;50.44;101597.34;5009859;28;20384;-76
2023/10/18 04:23:15;;;;;;;0.35;0.35;;;;;;;9.99;50.86;101590.84;5006097;28;20452;-76
2023/10/18 04:25:57;;;;;;;0.60;0.60;;;;;;;9.85;51.20;101592.16;5025156;28;20401;-77
2023/10/18 04:28:23;;;;;;;0.25;0.25;;;;;;;9.87;50.59;101584.91;5011911;28;20480;-75
2023/10/18 04:30:59;;;;;;;0.43;0.43;;;;;;;9.93;50.81;101580.84;5027265;28;20469;-75
2023/10/18 04:33:28;;;;;;;0.20;0.20;;;;;;;9.97;50.42;101587.50;5011995;28;20955;-77
2023/10/18 04:36:00;;;;;;;0.10;0.10;;;;;;;9.98;50.30;101580.41;5026826;28;20385;-75
2023/10/18 04:38:36;;;;;;;0.53;0.53;;;;;;;9.77;50.98;101574.31;5027090;28;20430;-75
2023/10/18 04:41:07;;;;;;;0.57;0.57;;;;;;;9.89;50.86;101576.81;5026883;28;20407;-75
2023/10/18 04:43:33;;;;;;;0.50;0.50;;;;;;;10.10;49.76;101576.59;5027180;28;20421;-76
2023/10/18 04:46:14;;;;;;;0.30;0.30;;;;;;;10.31;49.80;101582.50;5027108;28;20398;-76
2023/10/18 04:53:59;;;;;;;0.38;0.38;;;;;;;10.54;48.58;101565.41;5027376;28;20401;-77
2023/10/18 04:56:31;;;;;;;0.43;0.43;;;;;;;10.57;48.63;101571.25;5027519;28;20386;-78
2023/10/18 04:59:06;;;;;;;0.30;0.30;;;;;;;10.57;48.77;101573.03;5020977;28;20408;-77
2023/10/18 05:02:16;;;;;;;0.27;0.27;;;;;;;10.64;48.53;101576.75;5024507;28;20968;-78
2023/10/18 05:04:29;;;;;;;1.70;1.00;;;;;;;10.49;49.04;101582.56;5008834;28;20396;-78
2023/10/18 05:06:56;;;;;;;0.95;0.55;;;;;;;10.42;49.57;101593.91;5009362;28;20403;-78
2023/10/18 05:09:41;;;;;;;0.95;0.65;;;;;;;10.34;49.69;101589.34;5009552;28;20392;-79
2023/10/18 05:14:43;;;;;;;0.22;0.22;;;;;;;10.39;49.67;101595.06;5009990;28;20503;-77
2023/10/18 05:17:17;;;;;;;0.30;0.30;;;;;;;10.30;49.90;101595.91;5010375;28;20835;-76
2023/10/18 05:19:44;;;;;;;1.20;0.77;;;;;;;10.28;49.85;101603.16;5024740;28;20998;-76
2023/10/18 05:22:20;;;;;;;1.10;0.70;;;;;;;10.38;49.93;101600.50;5009646;28;20423;-76
2023/10/18 05:24:55;;;;;;;0.50;0.50;;;;;;;10.55;49.44;101596.22;5009364;28;20376;-76
2023/10/18 05:27:24;;;;;;;0.30;0.30;;;;;;;10.48;49.20;101606.59;5011725;28;20380;-76
2023/10/18 05:29:59;;;;;;;1.08;0.98;;;;;;;10.34;49.77;101610.56;5009782;28;20403;-76
2023/10/18 05:32:38;;;;;;;1.00;1.00;;;;;;;10.49;49.31;101614.38;5024968;28;20925;-77
2023/10/18 05:35:19;;;;;;;0.20;0.20;;;;;;;10.61;48.92;101619.50;5024681;28;20399;-76
2023/10/18 05:37:50;;;;;;;0.10;0.10;;;;;;;10.66;48.66;101611.91;5010003;28;20380;-76
2023/10/18 05:43:03;;;;;;;0.30;0.30;;;;;;;10.36;49.57;101603.28;5013337;28;20387;-78
2023/10/18 05:45:32;;;;;;;0.40;0.40;;;;;;;10.49;49.04;101617.03;5013570;28;20384;-78
2023/10/18 05:48:02;;;;;;;0.20;0.20;;;;;;;10.56;48.88;101605.84;5012554;28;20399;-76
2023/10/18 05:50:34;;;;;;;0.40;0.40;;;;;;;10.70;48.68;101613.31;5013321;28;20454;-77
2023/10/18 05:53:02;;;;;;;0.60;0.60;;;;;;;10.90;48.41;101617.50;5012604;28;20503;-78
2023/10/18 05:55:30;;;;;;;1.20;0.30;;;;;;;11.07;48.23;101615.84;5011792;28;20755;-76
2023/10/18 05:57:56;;;;;;;0.17;0.17;;;;;;;11.10;48.05;101614.72;5011259;28;20494;-76
2023/10/18 06:00:26;;;;;;;0.30;0.30;;;;;;;11.20;47.87;101609.31;5013215;28;20446;-77
2023/10/18 06:02:52;;;;;;;0.60;0.60;;;;;;;11.29;47.69;101611.09;5012438;28;20380;-76
2023/10/18 06:05:20;;;;;;;0.20;0.20;;;;;;;11.38;47.34;101618.13;5012932;28;20962;-77
2023/10/18 06:07:47;;;;;;;0.20;0.20;;;;;;;11.43;47.36;101610.53;5013089;28;20898;-78
2023/10/18 06:10:18;;;;;;;0.20;0.20;;;;;;;11.47;47.05;101611.06;5013080;28;20419;-80
2023/10/18 06:12:46;;;;;;;0.15;0.15;;;;;;;11.60;47.10;101610.66;5027932;28;20479;-77
2023/10/18 06:15:19;;;;;;;3.45;0.73;;;;;;;11.65;46.80;101605.72;5020952;28;20936;-77
2023/10/18 06:17:47;;;;;;;0.13;0.13;;;;;;;11.77;46.68;101609.78;5030159;28;20390;-77
2023/10/18 06:20:36;;;;;;;0.28;0.28;;;;;;;11.91;46.53;101605.75;5031522;28;20414;-78
2023/10/18 06:23:09;;;;;;;0.20;0.13;;;;;;;12.08;46.21;101611.16;5031838;28;20449;-78
2023/10/18 06:25:36;;;;;;;0.30;0.30;;;;;;;12.00;46.12;101606.63;5029165;28;20402;-78
2023/10/18 06:28:07;;;;;;;0.10;0.10;;;;;;;12.04;46.21;101611.47;5044092;28;20404;-78
2023/10/18 06:30:39;;;;;;;1.50;0.85;;;;;;;12.08;45.81;101611.16;5026672;28;20449;-78
2023/10/18 06:33:07;;;;;;;0.15;0.15;;;;;;;12.07;45.88;101614.81;5022007;28;20402;-79
2023/10/18 06:35:50;;;;;;;0.10;0.10;;;;;;;12.16;45.86;101620.00;5013698;28;20394;-78
2023/10/18 06:38:26;;;;;;;0.47;0.47;;;;;;;12.23;45.53;101617.56;5029771;28;20923;-78
2023/10/18 06:41:00;;;;;;;0.80;0.80;;;;;;;12.23;45.48;101620.22;5030024;28;20417;-78
2023/10/18 06:43:27;;;;;;;0.17;0.17;;;;;;;12.23;45.39;101633.50;5029642;28;21235;-79
2023/10/18 06:45:54;;;;;;;1.50;0.60;;;;;;;12.25;45.41;101631.53;5030880;28;20472;-77
2023/10/18 06:48:28;;;;;;;0.60;0.60;;;;;;;12.32;45.37;101637.88;5031247;28;20450;-78
2023/10/18 06:50:53;;;;;;;0.10;0.10;;;;;;;12.46;45.20;101643.56;5028331;28;20414;-76
2023/10/18 06:53:38;;;;;;;0.20;0.20;;;;;;;12.56;45.04;101641.63;5031630;28;20389;-77
2023/10/18 06:56:19;;;;;;;0.20;0.20;;;;;;;12.66;44.59;101644.16;5030305;28;20905;-76
2023/10/18 06:58:45;;;;;;;0.17;0.17;;;;;;;12.65;44.53;101638.00;5029300;28;20383;-77
2023/10/18 07:01:17;;;;;;;0.30;0.30;;;;;;;12.63;44.45;101630.19;5030210;28;20395;-77
2023/10/18 07:03:45;;;;;;;0.20;0.20;;;;;;;12.71;44.52;101637.38;5027496;28;20394;-79
2023/10/18 07:06:23;;;;;;;0.20;0.20;;;;;;;12.78;44.21;101633.06;5030926;28;20507;-78
2023/10/18 07:09:09;;;;;;;0.30;0.30;;;;;;;12.85;43.97;101632.41;5029549;28;20761;-77
2023/10/18 07:11:42;;;;;;;0.25;0.25;;;;;;;12.93;43.94;101638.59;5045483;28;20403;-76
2023/10/18 07:14:07;;;;;;;0.13;0.13;;;;;;;12.99;43.48;101631.78;5028972;28;20691;-74
2023/10/18 07:16:39;;;;;;;0.10;0.10;;;;;;;12.99;43.53;101629.13;5030975;28;20389;-75
2023/10/18 07:21:54;;;;;;;0.20;0.20;;;;;;;13.24;42.91;101629.16;5028436;28;20383;-77
2023/10/18 07:24:21;;;;;;;0.20;0.20;;;;;;;13.20;42.69;101620.69;5029975;28;20394;-80
2023/10/18 07:26:53;;;;;;;0.28;0.28;;;;;;;13.32;42.62;101622.03;5031671;28;20374;-81
2023/10/18 07:29:46;;;;;;;0.20;0.20;;;;;;;13.32;42.32;101621.19;5028375;28;20459;-80
2023/10/18 07:32:36;;;;;;;0.28;0.28;;;;;;;13.34;42.03;101621.88;5032684;28;20726;-78
2023/10/18 07:35:29;;;;;;;0.20;0.20;;;;;;;13.32;41.67;101629.19;5014389;28;20410;-78
2023/10/18 07:37:55;;;;;;;0.15;0.15;;;;;;;13.45;41.63;101623.38;5011200;28;20388;-77
2023/10/18 07:40:21;;;;;;;0.30;0.30;;;;;;;13.57;41.35;101630.84;5011134;28;20747;-77
2023/10/18 07:42:51;;;;;;;0.38;0.35;;;;;;;13.57;41.72;101628.19;5027351;28;20381;-78
2023/10/18 07:45:22;;;;;;;0.03;0.03;;;;;;;13.68;41.16;101627.00;5010989;28;20491;-78
2023/10/18 07:47:54;;;;;;;0.25;0.17;;;;;;;13.87;41.59;101625.00;5011677;28;20432;-78
2023/10/18 07:50:42;;;;;;;0.20;0.20;;;;;;;13.98;41.32;101624.66;5010712;28;20925;-76
2023/10/18 07:53:15;;;;;;;0.10;0.10;;;;;;;14.17;41.36;101618.13;5022734;28;20385;-84
2023/10/18 07:55:43;;;;;;;0.77;0.30;;;;;;;14.22;41.06;101617.59;5021781;28;20393;-82
2023/10/18 07:58:22;;;;;;;0.70;0.40;;;;;;;14.31;41.17;101613.88;5013918;28;20898;-80
2023/10/18 08:03:32;;;;;;;0.10;0.10;;;;;;;14.30;40.68;101609.56;5011277;28;20392;-80
2023/10/18 08:06:06;;;;;;;0.20;0.20;;;;;;;14.34;40.92;101609.03;5009718;28;20412;-77
2023/10/18 08:08:43;;;;;;;0.30;0.30;;;;;;;14.42;40.74;101605.53;5010976;28;20395;-77
2023/10/18 08:11:14;;;;;;;0.10;0.10;;;;;;;14.41;40.50;101595.84;5011237;28;20404;-78
2023/10/18 08:13:45;;;;;;;0.20;0.20;;;;;;;14.53;40.41;101590.94;5010859;28;20383;-85
2023/10/18 08:16:19;;;;;;;0.45;0.35;;;;;;;14.66;40.44;101603.78;5012343;28;20400;-79
2023/10/18 08:18:59;;;;;;;0.10;0.10;;;;;;;14.67;39.79;101595.56;5010243;28;20393;-82
2023/10/18 08:21:29;;;;;;;0.30;0.30;;;;;;;14.55;39.72;101591.63;5028113;28;20439;-80
2023/10/18 08:23:57;;;;;;;0.17;0.17;;;;;;;14.60;39.85;101588.44;5009843;28;20563;-79
2023/10/18 08:26:28;;;;;;;0.28;0.20;;;;;;;14.65;39.76;101586.09;5027620;28;20409;-81
2023/10/18 08:29:03;;;;;;;0.25;0.25;;;;;;;14.59;39.55;101581.47;5028366;28;20402;-81
2023/10/18 08:31:32;;;;;;;0.20;0.20;;;;;;;14.64;39.38;101595.94;5012092;28;20804;-81
2023/10/18 08:34:15;;;;;;;0.15;0.15;;;;;;;14.59;39.04;101589.47;5028575;28;20406;-81
2023/10/18 08:36:43;;;;;;;0.20;0.20;;;;;;;14.76;39.57;101604.38;5012661;28;20402;-80
2023/10/18 08:39:11;;;;;;;0.20;0.10;;;;;;;14.82;39.46;101605.50;5028186;28;20451;-81
2023/10/18 08:41:53;;;;;;;0.10;0.10;;;;;;;14.96;39.20;101612.75;5029432;28;20908;-81
2023/10/18 08:44:27;;;;;;;0.40;0.40;;;;;;;14.96;39.15;101607.41;5011934;28;20788;-82
2023/10/18 08:49:51;;;;;;;0.10;0.10;;;;;;;15.15;39.12;101606.13;5012791;28;20490;-79
2023/10/18 08:52:23;;;;;;;0.20;0.20;;;;;;;15.36;38.92;101604.63;5028803;28;20516;-80
2023/10/18 08:54:49;;;;;;;0.15;0.15;;;;;;;15.23;38.41;101602.53;5028588;28;20386;-80
2023/10/18 08:57:34;;;;;;;0.57;0.45;;;;;;;14.98;38.12;101601.88;5019902;28;20399;-79
2023/10/18 09:02:57;;;;;;;0.30;0.30;;;;;;;15.42;38.42;101612.75;5012841;28;20404;-80
2023/10/18 09:05:24;;;;;;;0.28;0.28;;;;;;;15.50;38.53;101603.81;5008985;28;20415;-81
2023/10/18 09:07:54;;;;;;;0.10;0.10;;;;;;;15.58;38.03;101598.41;5008982;28;20391;-80
2023/10/18 09:16:01;;;;;;;0.17;0.17;;;;;;;15.49;38.05;101607.53;5010945;28;20400;-80
2023/10/18 09:18:30;;;;;;;0.30;0.30;;;;;;;15.24;37.84;101604.22;5023165;28;20395;-79
2023/10/18 09:21:07;;;;;;;0.77;0.60;;;;;;;15.53;38.45;101598.13;5009958;28;20392;-80
2023/10/18 09:23:33;;;;;;;1.40;0.60;;;;;;;15.68;37.95;101598.16;5011472;28;20400;-79
2023/10/18 09:26:18;;;;;;;0.30;0.30;;;;;;;15.67;38.00;101583.97;5008818;28;20748;-78
2023/10/18 09:28:44;;;;;;;0.00;0.00;;;;;;;15.70;37.63;101580.09;5008983;28;20907;-79
2023/10/18 09:31:18;;;;;;;0.08;0.08;;;;;;;15.87;38.06;101583.47;5008973;28;20435;-79
2023/10/18 09:34:06;;;;;;;;;;;;;;;;;;;;;
2023/10/18 09:36:38;;;;;;;0.10;0.10;;;;;;;16.08;38.06;101580.06;5010398;28;20392;-79
2023/10/18 09:39:11;;;;;;;0.10;0.10;;;;;;;16.17;38.14;101581.63;5020009;28;20423;-81
2023/10/18 09:41:39;;;;;;;0.30;0.30;;;;;;;16.23;37.78;101577.38;5034178;28;20450;-81
2023/10/18 09:44:06;;;;;;;0.30;0.30;;;;;;;16.31;37.73;101571.06;5024908;28;20920;-78
2023/10/18 09:46:34;;;;;;;0.10;0.10;;;;;;;16.46;37.58;101561.19;5010110;28;20770;-81
2023/10/18 09:49:21;;;;;;;2.80;0.13;;;;;;;16.44;37.67;101558.69;5009820;28;20392;-81
2023/10/18 09:51:56;;;;;;;0.10;0.10;;;;;;;16.49;37.58;101550.09;5046949;28;20501;-80
2023/10/18 09:54:22;;;;;;;0.17;0.17;;;;;;;16.51;37.80;101552.56;5047463;28;20867;-80
2023/10/18 09:56:53;;;;;;;0.43;0.43;;;;;;;16.52;37.91;101544.38;5030729;28;20396;-80
2023/10/18 09:59:30;;;;;;;0.10;0.10;;;;;;;16.62;38.12;101542.22;5046650;28;20437;-81
2023/10/18 10:04:25;;;;;;;0.10;0.10;;;;;;;16.76;37.89;101529.81;5031050;28;20400;-82
2023/10/18 10:07:27;;;;;;;0.10;0.10;;;;;;;16.73;37.36;101526.69;5031460;28;20416;-81
2023/10/18 10:09:46;;;;;;;0.20;0.20;;;;;;;16.71;37.25;101521.50;5048742;28;20898;-84
2023/10/18 10:12:27;;;;;;;0.40;0.40;;;;;;;16.77;37.08;101507.34;5049133;28;20483;-82
2023/10/18 10:14:54;;;;;;;0.10;0.10;;;;;;;16.90;37.05;101513.88;5032328;28;20460;-87
2023/10/18 10:17:28;;;;;;;0.10;0.10;;;;;;;16.88;36.66;101508.72;5048058;28;20392;-85
2023/10/18 10:20:11;;;;;;;0.10;0.10;;;;;;;17.06;36.52;101510.94;5047225;28;20500;-81
2023/10/18 10:22:45;;;;;;;0.10;0.10;;;;;;;16.95;36.19;101496.22;5004408;28;20393;-84
2023/10/18 10:25:31;;;;;;;0.20;0.20;;;;;;;16.89;35.95;101499.69;5031338;28;20400;-83
2023/10/18 10:28:14;;;;;;;0.13;0.13;;;;;;;16.92;35.99;101498.44;5051205;28;20389;-82
2023/10/18 10:31:04;;;;;;;0.60;0.20;;;;;;;17.12;36.10;101495.94;5052393;28;20875;-85
2023/10/18 10:34:08;;;;;;;0.10;0.10;;;;;;;16.97;35.64;101486.13;5051821;28;20462;-83
2023/10/18 10:36:37;;;;;;;0.20;0.20;;;;;;;17.04;35.71;101488.06;5049487;28;20381;-82
2023/10/18 10:39:12;;;;;;;0.30;0.30;;;;;;;17.14;36.02;101492.06;5019158;28;20443;-85
2023/10/18 10:42:09;;;;;;;0.10;0.10;;;;;;;17.25;36.17;101485.34;5020136;28;20859;-81
2023/10/18 10:45:10;;;;;;;0.10;0.10;;;;;;;17.20;35.83;101480.53;5033779;28;20420;-82
2023/10/18 10:47:42;;;;;;;0.03;0.03;;;;;;;17.22;35.81;101484.91;5036249;28;20807;-83
2023/10/18 10:50:10;;;;;;;0.10;0.10;;;;;;;17.35;35.53;101484.97;5035910;28;20858;-81
2023/10/18 10:52:44;;;;;;;0.10;0.10;;;;;;;17.31;35.09;101471.13;5051259;28;20890;-80
2023/10/18 10:55:18;;;;;;;0.40;0.20;;;;;;;17.31;34.69;101473.00;5019418;28;20392;-81
2023/10/18 10:57:46;;;;;;;0.10;0.10;;;;;;;17.35;34.74;101467.03;5017707;28;20409;-81
2023/10/18 11:00:49;;;;;;;0.38;0.38;;;;;;;17.49;35.30;101467.13;5034037;28;20388;-82
2023/10/18 11:03:55;;;;;;;0.10;0.10;;;;;;;17.50;35.16;101458.91;5052935;28;20389;-83
2023/10/18 11:06:32;;;;;;;0.17;0.17;;;;;;;17.55;34.89;101458.28;5026254;28;20511;-82
2023/10/18 11:09:01;;;;;;;0.13;0.13;;;;;;;17.68;35.14;101460.22;5018432;28;20489;-81
2023/10/18 11:11:32;;;;;;;0.50;0.30;;;;;;;17.71;35.04;101455.28;5049845;28;20430;-81
2023/10/18 11:13:58;;;;;;;0.20;0.20;;;;;;;17.69;34.56;101454.66;5034930;28;20428;-83
2023/10/18 11:16:36;;;;;;;0.37;0.37;;;;;;;17.55;33.82;101447.56;5050453;28;20408;-83
2023/10/18 11:19:02;;;;;;;0.30;0.30;;;;;;;17.62;34.40;101437.69;5017534;28;20732;-82
2023/10/18 11:21:31;;;;;;;0.30;0.30;;;;;;;17.65;33.58;101439.19;5012412;28;20406;-81
2023/10/18 11:24:02;;;;;;;0.20;0.20;;;;;;;17.60;33.22;101439.75;5012110;28;20496;-81
2023/10/18 11:26:40;;;;;;;0.50;0.50;;;;;;;17.71;33.98;101430.31;5011599;28;20907;-82
2023/10/18 11:29:12;;;;;;;0.20;0.20;;;;;;;17.82;33.81;101418.19;5026418;28;20775;-80
2023/10/18 11:31:42;;;;;;;0.20;0.20;;;;;;;17.79;33.39;101422.13;5027351;28;20412;-81
2023/10/18 11:34:14;;;;;;;0.40;0.40;;;;;;;17.90;33.79;101418.06;5012507;28;20467;-81
2023/10/18 11:36:43;;;;;;;0.10;0.10;;;;;;;17.81;32.89;101422.75;5012074;28;20400;-82
2023/10/18 11:39:23;;;;;;;0.20;0.20;;;;;;;17.86;32.82;101409.59;5027734;28;20400;-81
2023/10/18 11:41:52;;;;;;;1.33;0.63;;;;;;;17.96;32.98;101406.50;5011541;28;20424;-81
2023/10/18 11:44:33;;;;;;;0.10;0.10;;;;;;;18.08;32.65;101406.78;5013176;28;20404;-82
2023/10/18 11:47:41;;;;;;;0.20;0.20;;;;;;;18.05;32.60;101410.66;5027350;28;20405;-82
2023/10/18 11:50:01;;;;;;;0.10;0.10;;;;;;;18.19;32.48;101402.66;5012865;28;20466;-80
2023/10/18 11:52:30;;;;;;;0.10;0.10;;;;;;;18.29;32.61;101397.69;5012608;28;20507;-83
2023/10/18 11:55:11;;;;;;;0.40;0.40;;;;;;;18.31;33.11;101385.75;5011366;28;20388;-82
2023/10/18 11:57:43;;;;;;;0.35;0.35;;;;;;;18.23;32.48;101379.75;5013458;28;20391;-82
2023/10/18 12:02:51;;;;;;;0.28;0.28;;;;;;;18.41;32.41;101385.34;5011912;28;20403;-82
2023/10/18 12:05:27;;;;;;;0.40;0.40;;;;;;;18.45;32.32;101383.88;5011353;28;20941;-83
2023/10/18 12:08:05;;;;;;;0.30;0.30;;;;;;;18.57;32.46;101384.09;5009551;28;20494;-82
2023/10/18 12:10:35;;;;;;;0.10;0.10;;;;;;;18.57;32.25;101370.69;5012459;28;20499;-83
2023/10/18 12:13:20;;;;;;;0.20;0.20;;;;;;;18.57;31.77;101378.72;5012539;28;20418;-85
2023/10/18 12:15:45;;;;;;;0.20;0.20;;;;;;;18.57;32.00;101376.06;5011283;28;20898;-83
2023/10/18 12:18:14;;;;;;;0.20;0.20;;;;;;;18.68;32.01;101374.59;5011557;28;20384;-83
2023/10/18 12:20:44;;;;;;;0.20;0.20;;;;;;;18.63;31.86;101372.53;5013226;28;20930;-84
2023/10/18 12:23:18;;;;;;;0.30;0.30;;;;;;;18.76;32.05;101370.88;5015771;28;20915;-84
2023/10/18 12:25:45;;;;;;;0.30;0.30;;;;;;;18.68;31.41;101362.00;5019685;28;20463;-83
2023/10/18 12:28:18;;;;;;;0.35;0.30;;;;;;;18.76;32.26;101368.19;5027704;28;20427;-84
2023/10/18 12:30:45;;;;;;;0.50;0.50;;;;;;;18.66;31.93;101353.31;5010787;28;20414;-84
2023/10/18 12:33:19;;;;;;;0.40;0.40;;;;;;;18.79;32.00;101346.28;5011875;28;20380;-81
2023/10/18 12:35:48;;;;;;;0.20;0.20;;;;;;;18.90;31.73;101357.22;5027485;28;20400;-82
2023/10/18 12:38:15;;;;;;;0.25;0.25;;;;;;;18.81;31.36;101355.81;4996681;28;20431;-83